sensor_id;sensor_type;location;lat;lon;timestamp;P1;durP1;ratioP1;P2;durP2;ratioP2
43449;SDS011;29041;42.266;23.110;2023-07-08T00:00:13;5.88;;;4.57;;
43449;SDS011;29041;42.266;23.110;2023-07-08T00:03:03;6.82;;;4.90;;
43449;SDS011;29041;42.266;23.110;2023-07-08T00:05:53;6.95;;;4.65;;
43449;SDS011;29041;42.266;23.110;2023-07-08T00:08:42;6.45;;;4.97;;
43449;SDS011;29041;42.266;23.110;2023-07-08T00:11:29;6.22;;;4.55;;
43449;SDS011;29041;42.266;23.110;2023-07-08T00:14:16;6.85;;;4.28;;
43449;SDS011;29041;42.266;23.110;2023-07-08T00:17:04;5.28;;;4.35;;
43449;SDS011;29041;42.266;23.110;2023-07-08T00:19:58;5.97;;;4.35;;
43449;SDS011;29041;42.266;23.110;2023-07-08T00:22:45;7.53;;;4.80;;
43449;SDS011;29041;42.266;23.110;2023-07-08T00:25:35;6.72;;;4.93;;
43449;SDS011;29041;42.266;23.110;2023-07-08T00:28:22;9.35;;;5.55;;
43449;SDS011;29041;42.266;23.110;2023-07-08T00:31:10;8.38;;;4.82;;
43449;SDS011;29041;42.266;23.110;2023-07-08T00:33:57;6.50;;;3.90;;
43449;SDS011;29041;42.266;23.110;2023-07-08T00:36:45;5.07;;;4.30;;
43449;SDS011;29041;42.266;23.110;2023-07-08T00:39:33;6.25;;;4.55;;
43449;SDS011;29041;42.266;23.110;2023-07-08T00:42:21;6.28;;;4.32;;
43449;SDS011;29041;42.266;23.110;2023-07-08T00:45:24;6.65;;;4.40;;
43449;SDS011;29041;42.266;23.110;2023-07-08T00:48:19;7.53;;;4.53;;
43449;SDS011;29041;42.266;23.110;2023-07-08T00:51:10;9.13;;;4.68;;
43449;SDS011;29041;42.266;23.110;2023-07-08T00:54:00;7.00;;;4.60;;
43449;SDS011;29041;42.266;23.110;2023-07-08T00:56:48;7.53;;;4.95;;
43449;SDS011;29041;42.266;23.110;2023-07-08T00:59:41;5.57;;;4.53;;
43449;SDS011;29041;42.266;23.110;2023-07-08T01:02:34;6.15;;;4.97;;
43449;SDS011;29041;42.266;23.110;2023-07-08T01:05:25;7.20;;;5.07;;
43449;SDS011;29041;42.266;23.110;2023-07-08T01:08:16;8.10;;;4.68;;
43449;SDS011;29041;42.266;23.110;2023-07-08T01:11:04;9.18;;;5.18;;
43449;SDS011;29041;42.266;23.110;2023-07-08T01:13:52;7.65;;;5.20;;
43449;SDS011;29041;42.266;23.110;2023-07-08T01:16:39;6.28;;;4.93;;
43449;SDS011;29041;42.266;23.110;2023-07-08T01:19:26;6.95;;;4.97;;
43449;SDS011;29041;42.266;23.110;2023-07-08T01:22:19;8.07;;;4.55;;
43449;SDS011;29041;42.266;23.110;2023-07-08T01:25:07;6.85;;;5.32;;
43449;SDS011;29041;42.266;23.110;2023-07-08T01:27:56;7.63;;;4.88;;
43449;SDS011;29041;42.266;23.110;2023-07-08T01:30:44;5.75;;;4.65;;
43449;SDS011;29041;42.266;23.110;2023-07-08T01:33:33;6.75;;;4.03;;
43449;SDS011;29041;42.266;23.110;2023-07-08T01:36:20;7.07;;;5.03;;
43449;SDS011;29041;42.266;23.110;2023-07-08T01:39:11;6.75;;;4.65;;
43449;SDS011;29041;42.266;23.110;2023-07-08T01:41:59;9.98;;;5.00;;
43449;SDS011;29041;42.266;23.110;2023-07-08T01:44:46;5.85;;;5.10;;
43449;SDS011;29041;42.266;23.110;2023-07-08T01:47:33;7.10;;;5.45;;
43449;SDS011;29041;42.266;23.110;2023-07-08T01:50:21;7.90;;;5.75;;
43449;SDS011;29041;42.266;23.110;2023-07-08T01:53:10;6.60;;;4.88;;
43449;SDS011;29041;42.266;23.110;2023-07-08T01:56:02;6.65;;;5.72;;
43449;SDS011;29041;42.266;23.110;2023-07-08T01:58:50;7.78;;;5.25;;
43449;SDS011;29041;42.266;23.110;2023-07-08T02:01:37;7.22;;;5.47;;
43449;SDS011;29041;42.266;23.110;2023-07-08T02:04:25;6.43;;;4.78;;
43449;SDS011;29041;42.266;23.110;2023-07-08T02:07:15;6.20;;;5.07;;
43449;SDS011;29041;42.266;23.110;2023-07-08T02:10:03;9.15;;;5.45;;
43449;SDS011;29041;42.266;23.110;2023-07-08T02:12:52;7.72;;;5.82;;
43449;SDS011;29041;42.266;23.110;2023-07-08T02:15:40;8.30;;;5.80;;
43449;SDS011;29041;42.266;23.110;2023-07-08T02:18:27;8.90;;;6.15;;
43449;SDS011;29041;42.266;23.110;2023-07-08T02:21:17;8.43;;;5.93;;
43449;SDS011;29041;42.266;23.110;2023-07-08T02:24:05;8.57;;;5.82;;
43449;SDS011;29041;42.266;23.110;2023-07-08T02:26:52;11.40;;;6.55;;
43449;SDS011;29041;42.266;23.110;2023-07-08T02:29:41;7.38;;;5.03;;
43449;SDS011;29041;42.266;23.110;2023-07-08T02:32:28;9.00;;;6.05;;
43449;SDS011;29041;42.266;23.110;2023-07-08T02:35:15;8.13;;;5.68;;
43449;SDS011;29041;42.266;23.110;2023-07-08T02:38:02;7.35;;;5.35;;
43449;SDS011;29041;42.266;23.110;2023-07-08T02:40:50;6.30;;;4.90;;
43449;SDS011;29041;42.266;23.110;2023-07-08T02:43:37;7.13;;;5.78;;
43449;SDS011;29041;42.266;23.110;2023-07-08T02:46:26;7.80;;;5.75;;
43449;SDS011;29041;42.266;23.110;2023-07-08T02:49:13;13.05;;;7.93;;
43449;SDS011;29041;42.266;23.110;2023-07-08T02:52:01;8.23;;;5.60;;
43449;SDS011;29041;42.266;23.110;2023-07-08T02:54:48;9.10;;;6.07;;
43449;SDS011;29041;42.266;23.110;2023-07-08T02:57:35;10.48;;;6.45;;
43449;SDS011;29041;42.266;23.110;2023-07-08T03:00:22;8.52;;;6.43;;
43449;SDS011;29041;42.266;23.110;2023-07-08T03:03:11;16.77;;;10.00;;
43449;SDS011;29041;42.266;23.110;2023-07-08T03:06:02;30.50;;;17.03;;
43449;SDS011;29041;42.266;23.110;2023-07-08T03:08:50;13.57;;;9.25;;
43449;SDS011;29041;42.266;23.110;2023-07-08T03:11:38;8.80;;;6.30;;
43449;SDS011;29041;42.266;23.110;2023-07-08T03:14:26;8.68;;;6.22;;
43449;SDS011;29041;42.266;23.110;2023-07-08T03:17:13;11.15;;;6.97;;
43449;SDS011;29041;42.266;23.110;2023-07-08T03:20:06;12.30;;;6.82;;
43449;SDS011;29041;42.266;23.110;2023-07-08T03:22:54;9.43;;;6.32;;
43449;SDS011;29041;42.266;23.110;2023-07-08T03:25:41;12.93;;;7.00;;
43449;SDS011;29041;42.266;23.110;2023-07-08T03:28:28;11.98;;;6.40;;
43449;SDS011;29041;42.266;23.110;2023-07-08T03:31:16;11.27;;;6.90;;
43449;SDS011;29041;42.266;23.110;2023-07-08T03:34:04;11.77;;;7.90;;
43449;SDS011;29041;42.266;23.110;2023-07-08T03:36:52;12.98;;;6.72;;
43449;SDS011;29041;42.266;23.110;2023-07-08T03:39:39;11.80;;;6.70;;
43449;SDS011;29041;42.266;23.110;2023-07-08T03:42:27;7.43;;;5.75;;
43449;SDS011;29041;42.266;23.110;2023-07-08T03:45:14;11.20;;;7.25;;
43449;SDS011;29041;42.266;23.110;2023-07-08T03:48:01;11.88;;;6.88;;
43449;SDS011;29041;42.266;23.110;2023-07-08T03:50:48;8.95;;;6.05;;
43449;SDS011;29041;42.266;23.110;2023-07-08T03:53:37;7.97;;;6.28;;
43449;SDS011;29041;42.266;23.110;2023-07-08T03:56:25;12.20;;;7.68;;
43449;SDS011;29041;42.266;23.110;2023-07-08T03:59:12;14.02;;;8.95;;
43449;SDS011;29041;42.266;23.110;2023-07-08T04:01:59;18.40;;;10.60;;
43449;SDS011;29041;42.266;23.110;2023-07-08T04:04:46;18.05;;;11.48;;
43449;SDS011;29041;42.266;23.110;2023-07-08T04:07:33;7.85;;;5.43;;
43449;SDS011;29041;42.266;23.110;2023-07-08T04:10:22;9.65;;;6.70;;
43449;SDS011;29041;42.266;23.110;2023-07-08T04:13:09;8.73;;;6.63;;
43449;SDS011;29041;42.266;23.110;2023-07-08T04:15:57;26.27;;;14.48;;
43449;SDS011;29041;42.266;23.110;2023-07-08T04:18:47;10.93;;;7.57;;
43449;SDS011;29041;42.266;23.110;2023-07-08T04:21:36;10.25;;;6.13;;
43449;SDS011;29041;42.266;23.110;2023-07-08T04:24:23;8.88;;;6.60;;
43449;SDS011;29041;42.266;23.110;2023-07-08T04:27:13;10.93;;;7.68;;
43449;SDS011;29041;42.266;23.110;2023-07-08T04:30:02;11.93;;;8.32;;
43449;SDS011;29041;42.266;23.110;2023-07-08T04:32:50;11.50;;;8.82;;
43449;SDS011;29041;42.266;23.110;2023-07-08T04:35:38;8.20;;;5.88;;
43449;SDS011;29041;42.266;23.110;2023-07-08T04:38:26;9.93;;;5.90;;
43449;SDS011;29041;42.266;23.110;2023-07-08T04:41:13;13.85;;;8.38;;
43449;SDS011;29041;42.266;23.110;2023-07-08T04:44:02;11.90;;;7.40;;
43449;SDS011;29041;42.266;23.110;2023-07-08T04:46:51;12.85;;;6.65;;
43449;SDS011;29041;42.266;23.110;2023-07-08T04:49:40;13.88;;;8.75;;
43449;SDS011;29041;42.266;23.110;2023-07-08T04:52:29;9.02;;;7.28;;
43449;SDS011;29041;42.266;23.110;2023-07-08T04:55:16;11.73;;;7.70;;
43449;SDS011;29041;42.266;23.110;2023-07-08T04:58:03;18.70;;;10.73;;
43449;SDS011;29041;42.266;23.110;2023-07-08T05:00:52;15.13;;;9.77;;
43449;SDS011;29041;42.266;23.110;2023-07-08T05:03:49;9.10;;;5.45;;
43449;SDS011;29041;42.266;23.110;2023-07-08T05:06:36;12.88;;;7.38;;
43449;SDS011;29041;42.266;23.110;2023-07-08T05:09:23;10.43;;;6.20;;
43449;SDS011;29041;42.266;23.110;2023-07-08T05:12:11;8.70;;;7.43;;
43449;SDS011;29041;42.266;23.110;2023-07-08T05:14:58;8.20;;;6.00;;
43449;SDS011;29041;42.266;23.110;2023-07-08T05:17:47;9.85;;;6.85;;
43449;SDS011;29041;42.266;23.110;2023-07-08T05:20:34;8.70;;;5.50;;
43449;SDS011;29041;42.266;23.110;2023-07-08T05:23:22;7.20;;;5.88;;
43449;SDS011;29041;42.266;23.110;2023-07-08T05:26:09;7.40;;;6.05;;
43449;SDS011;29041;42.266;23.110;2023-07-08T05:28:56;14.02;;;8.50;;
43449;SDS011;29041;42.266;23.110;2023-07-08T05:31:44;12.15;;;8.10;;
43449;SDS011;29041;42.266;23.110;2023-07-08T05:34:32;16.67;;;8.90;;
43449;SDS011;29041;42.266;23.110;2023-07-08T05:37:29;11.35;;;8.32;;
43449;SDS011;29041;42.266;23.110;2023-07-08T05:40:16;17.23;;;10.35;;
43449;SDS011;29041;42.266;23.110;2023-07-08T05:43:03;37.85;;;21.45;;
43449;SDS011;29041;42.266;23.110;2023-07-08T05:45:51;10.02;;;6.25;;
43449;SDS011;29041;42.266;23.110;2023-07-08T05:48:38;7.25;;;5.80;;
43449;SDS011;29041;42.266;23.110;2023-07-08T05:51:27;8.25;;;5.63;;
43449;SDS011;29041;42.266;23.110;2023-07-08T05:54:19;8.25;;;6.32;;
43449;SDS011;29041;42.266;23.110;2023-07-08T05:57:07;7.43;;;5.45;;
43449;SDS011;29041;42.266;23.110;2023-07-08T05:59:56;7.55;;;6.15;;
43449;SDS011;29041;42.266;23.110;2023-07-08T06:02:43;6.43;;;4.80;;
43449;SDS011;29041;42.266;23.110;2023-07-08T06:05:31;8.27;;;4.93;;
43449;SDS011;29041;42.266;23.110;2023-07-08T06:08:20;6.57;;;5.00;;
43449;SDS011;29041;42.266;23.110;2023-07-08T06:11:08;5.93;;;4.47;;
43449;SDS011;29041;42.266;23.110;2023-07-08T06:13:55;5.72;;;4.28;;
43449;SDS011;29041;42.266;23.110;2023-07-08T06:16:43;6.00;;;4.82;;
43449;SDS011;29041;42.266;23.110;2023-07-08T06:19:30;4.50;;;4.10;;
43449;SDS011;29041;42.266;23.110;2023-07-08T06:22:17;8.73;;;4.90;;
43449;SDS011;29041;42.266;23.110;2023-07-08T06:25:06;4.72;;;3.85;;
43449;SDS011;29041;42.266;23.110;2023-07-08T06:27:54;7.82;;;4.20;;
43449;SDS011;29041;42.266;23.110;2023-07-08T06:30:41;6.15;;;4.25;;
43449;SDS011;29041;42.266;23.110;2023-07-08T06:33:29;5.45;;;4.25;;
43449;SDS011;29041;42.266;23.110;2023-07-08T06:36:16;5.05;;;4.32;;
43449;SDS011;29041;42.266;23.110;2023-07-08T06:39:03;7.20;;;4.25;;
43449;SDS011;29041;42.266;23.110;2023-07-08T06:41:54;7.38;;;4.30;;
43449;SDS011;29041;42.266;23.110;2023-07-08T06:44:41;5.35;;;4.25;;
43449;SDS011;29041;42.266;23.110;2023-07-08T06:47:35;7.25;;;5.03;;
43449;SDS011;29041;42.266;23.110;2023-07-08T06:50:22;6.72;;;4.30;;
43449;SDS011;29041;42.266;23.110;2023-07-08T06:53:10;5.07;;;3.65;;
43449;SDS011;29041;42.266;23.110;2023-07-08T06:55:57;5.45;;;4.53;;
43449;SDS011;29041;42.266;23.110;2023-07-08T06:58:46;5.38;;;4.10;;
43449;SDS011;29041;42.266;23.110;2023-07-08T07:01:33;9.55;;;5.20;;
43449;SDS011;29041;42.266;23.110;2023-07-08T07:04:22;5.65;;;4.97;;
43449;SDS011;29041;42.266;23.110;2023-07-08T07:07:09;4.60;;;3.55;;
43449;SDS011;29041;42.266;23.110;2023-07-08T07:09:56;10.32;;;4.53;;
43449;SDS011;29041;42.266;23.110;2023-07-08T07:12:43;5.55;;;4.00;;
43449;SDS011;29041;42.266;23.110;2023-07-08T07:15:31;4.57;;;3.35;;
43449;SDS011;29041;42.266;23.110;2023-07-08T07:18:19;6.65;;;5.05;;
43449;SDS011;29041;42.266;23.110;2023-07-08T07:21:06;6.05;;;3.67;;
43449;SDS011;29041;42.266;23.110;2023-07-08T07:23:53;4.65;;;3.85;;
43449;SDS011;29041;42.266;23.110;2023-07-08T07:26:40;5.03;;;3.95;;
43449;SDS011;29041;42.266;23.110;2023-07-08T07:29:27;5.50;;;3.80;;
43449;SDS011;29041;42.266;23.110;2023-07-08T07:32:16;4.80;;;3.47;;
43449;SDS011;29041;42.266;23.110;2023-07-08T07:35:05;5.72;;;3.88;;
43449;SDS011;29041;42.266;23.110;2023-07-08T07:37:53;4.35;;;3.58;;
43449;SDS011;29041;42.266;23.110;2023-07-08T07:40:40;3.42;;;3.10;;
43449;SDS011;29041;42.266;23.110;2023-07-08T07:43:27;5.75;;;3.75;;
43449;SDS011;29041;42.266;23.110;2023-07-08T07:46:15;5.30;;;3.83;;
43449;SDS011;29041;42.266;23.110;2023-07-08T07:49:03;8.57;;;4.13;;
43449;SDS011;29041;42.266;23.110;2023-07-08T07:51:50;5.72;;;3.65;;
43449;SDS011;29041;42.266;23.110;2023-07-08T07:54:38;5.47;;;3.65;;
43449;SDS011;29041;42.266;23.110;2023-07-08T07:57:25;6.18;;;5.03;;
43449;SDS011;29041;42.266;23.110;2023-07-08T08:00:13;4.05;;;3.38;;
43449;SDS011;29041;42.266;23.110;2023-07-08T08:03:00;5.13;;;3.85;;
43449;SDS011;29041;42.266;23.110;2023-07-08T08:05:49;11.93;;;6.13;;
43449;SDS011;29041;42.266;23.110;2023-07-08T08:08:36;6.47;;;4.55;;
43449;SDS011;29041;42.266;23.110;2023-07-08T08:11:23;4.85;;;3.40;;
43449;SDS011;29041;42.266;23.110;2023-07-08T08:14:11;4.57;;;4.15;;
43449;SDS011;29041;42.266;23.110;2023-07-08T08:16:58;5.38;;;3.47;;
43449;SDS011;29041;42.266;23.110;2023-07-08T08:19:45;6.25;;;3.65;;
43449;SDS011;29041;42.266;23.110;2023-07-08T08:22:33;4.63;;;3.45;;
43449;SDS011;29041;42.266;23.110;2023-07-08T08:25:21;4.30;;;3.10;;
43449;SDS011;29041;42.266;23.110;2023-07-08T08:28:10;5.90;;;3.38;;
43449;SDS011;29041;42.266;23.110;2023-07-08T08:30:57;5.18;;;3.53;;
43449;SDS011;29041;42.266;23.110;2023-07-08T08:33:44;4.32;;;3.42;;
43449;SDS011;29041;42.266;23.110;2023-07-08T08:36:32;4.55;;;3.50;;
43449;SDS011;29041;42.266;23.110;2023-07-08T08:39:21;4.43;;;3.40;;
43449;SDS011;29041;42.266;23.110;2023-07-08T08:42:09;4.95;;;3.97;;
43449;SDS011;29041;42.266;23.110;2023-07-08T08:45:11;7.40;;;3.22;;
43449;SDS011;29041;42.266;23.110;2023-07-08T08:48:06;4.90;;;3.30;;
43449;SDS011;29041;42.266;23.110;2023-07-08T08:50:58;4.38;;;3.20;;
43449;SDS011;29041;42.266;23.110;2023-07-08T08:53:54;3.20;;;2.88;;
43449;SDS011;29041;42.266;23.110;2023-07-08T08:56:46;5.47;;;3.53;;
43449;SDS011;29041;42.266;23.110;2023-07-08T08:59:38;7.40;;;3.38;;
43449;SDS011;29041;42.266;23.110;2023-07-08T09:02:32;5.03;;;2.63;;
43449;SDS011;29041;42.266;23.110;2023-07-08T09:05:22;3.60;;;2.67;;
43449;SDS011;29041;42.266;23.110;2023-07-08T09:08:12;5.07;;;3.17;;
43449;SDS011;29041;42.266;23.110;2023-07-08T09:11:03;3.92;;;3.25;;
43449;SDS011;29041;42.266;23.110;2023-07-08T09:14:01;6.18;;;2.92;;
43449;SDS011;29041;42.266;23.110;2023-07-08T09:16:50;3.67;;;2.88;;
43449;SDS011;29041;42.266;23.110;2023-07-08T09:19:47;4.70;;;2.70;;
43449;SDS011;29041;42.266;23.110;2023-07-08T09:22:40;3.40;;;2.60;;
43449;SDS011;29041;42.266;23.110;2023-07-08T09:25:32;2.58;;;2.22;;
43449;SDS011;29041;42.266;23.110;2023-07-08T09:28:22;3.77;;;2.37;;
43449;SDS011;29041;42.266;23.110;2023-07-08T09:31:25;5.68;;;2.22;;
43449;SDS011;29041;42.266;23.110;2023-07-08T09:34:13;3.97;;;2.47;;
43449;SDS011;29041;42.266;23.110;2023-07-08T09:37:02;4.43;;;2.10;;
43449;SDS011;29041;42.266;23.110;2023-07-08T09:39:49;2.97;;;2.03;;
43449;SDS011;29041;42.266;23.110;2023-07-08T09:42:37;3.92;;;2.63;;
43449;SDS011;29041;42.266;23.110;2023-07-08T09:45:25;2.78;;;2.25;;
43449;SDS011;29041;42.266;23.110;2023-07-08T09:48:18;2.28;;;1.50;;
43449;SDS011;29041;42.266;23.110;2023-07-08T09:51:07;2.90;;;1.77;;
43449;SDS011;29041;42.266;23.110;2023-07-08T09:53:55;5.57;;;2.00;;
43449;SDS011;29041;42.266;23.110;2023-07-08T09:56:43;1.90;;;1.50;;
43449;SDS011;29041;42.266;23.110;2023-07-08T09:59:39;2.72;;;2.38;;
43449;SDS011;29041;42.266;23.110;2023-07-08T10:02:31;2.20;;;1.88;;
43449;SDS011;29041;42.266;23.110;2023-07-08T10:05:33;2.58;;;1.58;;
43449;SDS011;29041;42.266;23.110;2023-07-08T10:08:23;3.33;;;1.10;;
43449;SDS011;29041;42.266;23.110;2023-07-08T10:11:13;2.03;;;1.30;;
43449;SDS011;29041;42.266;23.110;2023-07-08T10:14:11;1.88;;;1.30;;
43449;SDS011;29041;42.266;23.110;2023-07-08T10:17:05;1.77;;;0.98;;
43449;SDS011;29041;42.266;23.110;2023-07-08T10:19:54;2.30;;;1.48;;
43449;SDS011;29041;42.266;23.110;2023-07-08T10:22:46;4.30;;;1.50;;
43449;SDS011;29041;42.266;23.110;2023-07-08T10:25:44;2.55;;;1.02;;
43449;SDS011;29041;42.266;23.110;2023-07-08T10:28:45;2.13;;;1.55;;
43449;SDS011;29041;42.266;23.110;2023-07-08T10:31:40;3.28;;;1.30;;
43449;SDS011;29041;42.266;23.110;2023-07-08T10:34:36;3.67;;;1.48;;
43449;SDS011;29041;42.266;23.110;2023-07-08T10:37:33;2.25;;;1.60;;
43449;SDS011;29041;42.266;23.110;2023-07-08T10:40:33;2.42;;;1.52;;
43449;SDS011;29041;42.266;23.110;2023-07-08T10:43:36;2.70;;;1.42;;
43449;SDS011;29041;42.266;23.110;2023-07-08T10:46:37;2.28;;;1.45;;
43449;SDS011;29041;42.266;23.110;2023-07-08T10:49:41;1.95;;;1.10;;
43449;SDS011;29041;42.266;23.110;2023-07-08T10:52:44;3.10;;;1.55;;
43449;SDS011;29041;42.266;23.110;2023-07-08T10:55:46;1.65;;;1.20;;
43449;SDS011;29041;42.266;23.110;2023-07-08T10:58:41;3.53;;;1.90;;
43449;SDS011;29041;42.266;23.110;2023-07-08T11:01:41;2.20;;;1.73;;
43449;SDS011;29041;42.266;23.110;2023-07-08T11:04:49;2.05;;;1.27;;
43449;SDS011;29041;42.266;23.110;2023-07-08T11:07:46;4.05;;;1.55;;
43449;SDS011;29041;42.266;23.110;2023-07-08T11:10:42;1.85;;;1.20;;
43449;SDS011;29041;42.266;23.110;2023-07-08T11:13:38;2.65;;;1.30;;
43449;SDS011;29041;42.266;23.110;2023-07-08T11:16:32;2.22;;;1.40;;
43449;SDS011;29041;42.266;23.110;2023-07-08T11:19:27;2.20;;;1.77;;
43449;SDS011;29041;42.266;23.110;2023-07-08T11:22:19;2.17;;;1.20;;
43449;SDS011;29041;42.266;23.110;2023-07-08T11:25:08;2.03;;;1.42;;
43449;SDS011;29041;42.266;23.110;2023-07-08T11:28:06;3.92;;;1.70;;
43449;SDS011;29041;42.266;23.110;2023-07-08T11:31:02;1.95;;;1.35;;
43449;SDS011;29041;42.266;23.110;2023-07-08T11:33:51;2.03;;;1.42;;
43449;SDS011;29041;42.266;23.110;2023-07-08T11:36:40;4.22;;;1.58;;
43449;SDS011;29041;42.266;23.110;2023-07-08T11:39:32;2.00;;;1.20;;
43449;SDS011;29041;42.266;23.110;2023-07-08T11:42:25;1.45;;;1.00;;
43449;SDS011;29041;42.266;23.110;2023-07-08T11:45:26;1.92;;;1.10;;
43449;SDS011;29041;42.266;23.110;2023-07-08T11:48:19;3.05;;;1.10;;
43449;SDS011;29041;42.266;23.110;2023-07-08T11:51:12;3.55;;;1.50;;
43449;SDS011;29041;42.266;23.110;2023-07-08T11:54:11;10.55;;;1.77;;
43449;SDS011;29041;42.266;23.110;2023-07-08T11:57:00;2.10;;;1.35;;
43449;SDS011;29041;42.266;23.110;2023-07-08T12:00:05;1.70;;;1.50;;
43449;SDS011;29041;42.266;23.110;2023-07-08T12:03:20;2.03;;;1.38;;
43449;SDS011;29041;42.266;23.110;2023-07-08T12:09:35;1.63;;;1.13;;
43449;SDS011;29041;42.266;23.110;2023-07-08T12:12:27;3.00;;;1.30;;
43449;SDS011;29041;42.266;23.110;2023-07-08T12:15:20;8.38;;;1.48;;
43449;SDS011;29041;42.266;23.110;2023-07-08T12:18:13;1.73;;;1.38;;
43449;SDS011;29041;42.266;23.110;2023-07-08T12:21:02;2.70;;;1.52;;
43449;SDS011;29041;42.266;23.110;2023-07-08T12:23:49;2.00;;;1.20;;
43449;SDS011;29041;42.266;23.110;2023-07-08T12:26:36;1.95;;;1.25;;
43449;SDS011;29041;42.266;23.110;2023-07-08T12:29:24;3.35;;;1.80;;
43449;SDS011;29041;42.266;23.110;2023-07-08T12:32:12;2.65;;;1.67;;
43449;SDS011;29041;42.266;23.110;2023-07-08T12:35:01;2.42;;;1.33;;
43449;SDS011;29041;42.266;23.110;2023-07-08T12:37:50;1.73;;;1.33;;
43449;SDS011;29041;42.266;23.110;2023-07-08T12:40:40;2.85;;;1.73;;
43449;SDS011;29041;42.266;23.110;2023-07-08T12:43:27;6.22;;;1.95;;
43449;SDS011;29041;42.266;23.110;2023-07-08T12:46:15;3.22;;;1.20;;
43449;SDS011;29041;42.266;23.110;2023-07-08T12:49:03;2.40;;;1.42;;
43449;SDS011;29041;42.266;23.110;2023-07-08T12:51:51;2.38;;;1.50;;
43449;SDS011;29041;42.266;23.110;2023-07-08T12:54:39;4.65;;;1.75;;
43449;SDS011;29041;42.266;23.110;2023-07-08T12:57:26;1.90;;;1.33;;
43449;SDS011;29041;42.266;23.110;2023-07-08T13:00:15;3.00;;;1.60;;
43449;SDS011;29041;42.266;23.110;2023-07-08T13:03:12;2.42;;;1.40;;
43449;SDS011;29041;42.266;23.110;2023-07-08T13:06:01;2.45;;;1.30;;
43449;SDS011;29041;42.266;23.110;2023-07-08T13:08:50;2.17;;;1.70;;
43449;SDS011;29041;42.266;23.110;2023-07-08T13:11:38;2.50;;;1.48;;
43449;SDS011;29041;42.266;23.110;2023-07-08T13:14:27;2.20;;;1.15;;
43449;SDS011;29041;42.266;23.110;2023-07-08T13:17:15;2.63;;;1.25;;
43449;SDS011;29041;42.266;23.110;2023-07-08T13:20:03;2.20;;;1.05;;
43449;SDS011;29041;42.266;23.110;2023-07-08T13:22:52;1.52;;;1.15;;
43449;SDS011;29041;42.266;23.110;2023-07-08T13:25:44;2.28;;;1.20;;
43449;SDS011;29041;42.266;23.110;2023-07-08T13:28:36;2.10;;;1.50;;
43449;SDS011;29041;42.266;23.110;2023-07-08T13:31:24;1.70;;;1.40;;
43449;SDS011;29041;42.266;23.110;2023-07-08T13:34:19;3.58;;;1.40;;
43449;SDS011;29041;42.266;23.110;2023-07-08T13:37:10;2.20;;;1.10;;
43449;SDS011;29041;42.266;23.110;2023-07-08T13:39:59;3.05;;;2.15;;
43449;SDS011;29041;42.266;23.110;2023-07-08T13:42:48;1.48;;;1.10;;
43449;SDS011;29041;42.266;23.110;2023-07-08T13:45:37;2.10;;;1.25;;
43449;SDS011;29041;42.266;23.110;2023-07-08T13:48:34;1.65;;;1.20;;
43449;SDS011;29041;42.266;23.110;2023-07-08T13:51:24;1.35;;;0.80;;
43449;SDS011;29041;42.266;23.110;2023-07-08T13:57:08;2.53;;;1.48;;
43449;SDS011;29041;42.266;23.110;2023-07-08T13:59:58;2.40;;;1.48;;
43449;SDS011;29041;42.266;23.110;2023-07-08T14:02:45;1.80;;;1.13;;
43449;SDS011;29041;42.266;23.110;2023-07-08T14:05:33;2.15;;;1.00;;
43449;SDS011;29041;42.266;23.110;2023-07-08T14:08:22;1.88;;;1.20;;
43449;SDS011;29041;42.266;23.110;2023-07-08T14:11:10;2.50;;;1.30;;
43449;SDS011;29041;42.266;23.110;2023-07-08T14:13:57;2.78;;;1.70;;
43449;SDS011;29041;42.266;23.110;2023-07-08T14:16:47;3.13;;;1.58;;
43449;SDS011;29041;42.266;23.110;2023-07-08T14:19:35;3.13;;;1.77;;
43449;SDS011;29041;42.266;23.110;2023-07-08T14:22:24;2.15;;;1.60;;
43449;SDS011;29041;42.266;23.110;2023-07-08T14:25:13;3.38;;;1.35;;
43449;SDS011;29041;42.266;23.110;2023-07-08T14:28:02;3.67;;;2.05;;
43449;SDS011;29041;42.266;23.110;2023-07-08T14:30:51;4.60;;;1.48;;
43449;SDS011;29041;42.266;23.110;2023-07-08T14:33:40;3.00;;;1.27;;
43449;SDS011;29041;42.266;23.110;2023-07-08T14:36:27;5.00;;;1.40;;
43449;SDS011;29041;42.266;23.110;2023-07-08T14:39:16;1.90;;;1.40;;
43449;SDS011;29041;42.266;23.110;2023-07-08T14:42:04;3.78;;;2.33;;
43449;SDS011;29041;42.266;23.110;2023-07-08T14:44:52;3.85;;;2.30;;
43449;SDS011;29041;42.266;23.110;2023-07-08T14:47:39;2.30;;;1.60;;
43449;SDS011;29041;42.266;23.110;2023-07-08T14:50:28;2.40;;;1.52;;
43449;SDS011;29041;42.266;23.110;2023-07-08T14:53:16;3.60;;;1.38;;
43449;SDS011;29041;42.266;23.110;2023-07-08T14:56:06;3.65;;;1.90;;
43449;SDS011;29041;42.266;23.110;2023-07-08T14:58:59;4.28;;;0.88;;
43449;SDS011;29041;42.266;23.110;2023-07-08T15:01:48;2.67;;;1.45;;
43449;SDS011;29041;42.266;23.110;2023-07-08T15:04:35;2.08;;;1.23;;
43449;SDS011;29041;42.266;23.110;2023-07-08T15:07:24;1.23;;;0.85;;
43449;SDS011;29041;42.266;23.110;2023-07-08T15:10:11;2.25;;;1.55;;
43449;SDS011;29041;42.266;23.110;2023-07-08T15:12:59;1.50;;;1.20;;
43449;SDS011;29041;42.266;23.110;2023-07-08T15:15:47;2.38;;;1.52;;
43449;SDS011;29041;42.266;23.110;2023-07-08T15:18:34;1.73;;;1.20;;
43449;SDS011;29041;42.266;23.110;2023-07-08T15:21:22;1.65;;;1.20;;
43449;SDS011;29041;42.266;23.110;2023-07-08T15:24:15;1.98;;;1.30;;
43449;SDS011;29041;42.266;23.110;2023-07-08T15:27:03;3.33;;;1.70;;
43449;SDS011;29041;42.266;23.110;2023-07-08T15:29:51;3.25;;;1.33;;
43449;SDS011;29041;42.266;23.110;2023-07-08T15:32:40;2.67;;;1.30;;
43449;SDS011;29041;42.266;23.110;2023-07-08T15:35:28;2.03;;;1.30;;
43449;SDS011;29041;42.266;23.110;2023-07-08T15:38:17;4.53;;;2.20;;
43449;SDS011;29041;42.266;23.110;2023-07-08T15:41:08;2.28;;;1.65;;
43449;SDS011;29041;42.266;23.110;2023-07-08T15:44:07;1.85;;;1.33;;
43449;SDS011;29041;42.266;23.110;2023-07-08T15:46:55;3.22;;;1.63;;
43449;SDS011;29041;42.266;23.110;2023-07-08T15:49:42;1.88;;;1.20;;
43449;SDS011;29041;42.266;23.110;2023-07-08T15:52:29;3.65;;;1.45;;
43449;SDS011;29041;42.266;23.110;2023-07-08T15:55:17;3.20;;;1.77;;
43449;SDS011;29041;42.266;23.110;2023-07-08T15:58:12;1.80;;;0.90;;
43449;SDS011;29041;42.266;23.110;2023-07-08T16:01:05;2.03;;;1.10;;
43449;SDS011;29041;42.266;23.110;2023-07-08T16:03:52;2.63;;;1.50;;
43449;SDS011;29041;42.266;23.110;2023-07-08T16:06:40;2.70;;;1.67;;
43449;SDS011;29041;42.266;23.110;2023-07-08T16:09:27;5.32;;;2.55;;
43449;SDS011;29041;42.266;23.110;2023-07-08T16:12:14;2.17;;;1.40;;
43449;SDS011;29041;42.266;23.110;2023-07-08T16:15:08;3.05;;;1.92;;
43449;SDS011;29041;42.266;23.110;2023-07-08T16:18:00;2.90;;;1.85;;
43449;SDS011;29041;42.266;23.110;2023-07-08T16:20:48;2.13;;;1.20;;
43449;SDS011;29041;42.266;23.110;2023-07-08T16:23:36;3.42;;;1.60;;
43449;SDS011;29041;42.266;23.110;2023-07-08T16:26:23;5.00;;;1.75;;
43449;SDS011;29041;42.266;23.110;2023-07-08T16:29:11;3.35;;;1.58;;
43449;SDS011;29041;42.266;23.110;2023-07-08T16:32:04;4.57;;;2.00;;
43449;SDS011;29041;42.266;23.110;2023-07-08T16:34:55;2.63;;;1.55;;
43449;SDS011;29041;42.266;23.110;2023-07-08T16:37:43;1.98;;;1.48;;
43449;SDS011;29041;42.266;23.110;2023-07-08T16:40:30;4.15;;;1.30;;
43449;SDS011;29041;42.266;23.110;2023-07-08T16:43:20;5.40;;;2.15;;
43449;SDS011;29041;42.266;23.110;2023-07-08T16:46:12;3.40;;;1.95;;
43449;SDS011;29041;42.266;23.110;2023-07-08T16:49:02;3.20;;;1.83;;
43449;SDS011;29041;42.266;23.110;2023-07-08T16:51:50;3.00;;;2.17;;